Time;durP1;ratioP1;P1;durP2;ratioP2;P2;SDS_P1;SDS_P2;PMS_P1;PMS_P2;Temp;Humidity;BMP_temperature;BMP_pressure;BME280_temperature;BME280_humidity;BME280_pressure;Samples;Min_cycle;Max_cycle;Signal;HPM_P1;HPM_P2
2021/05/09 00:02:24;;;;;;;21.93;20.53;;;;;;;;;;5062044;28;20446;-90
2021/05/09 00:04:51;;;;;;;22.03;20.77;;;;;;;;;;5061486;28;20479;-90
2021/05/09 00:07:18;;;;;;;21.70;20.50;;;;;;;;;;5044218;28;20453;-90
2021/05/09 00:09:45;;;;;;;21.83;20.57;;;;;;;;;;5049859;28;20413;-90
2021/05/09 00:12:14;;;;;;;21.73;20.53;;;;;;;;;;5066407;28;20461;-91
2021/05/09 00:14:41;;;;;;;22.00;20.80;;;;;;;;;;5065336;28;20461;-90
2021/05/09 00:17:08;;;;;;;20.97;19.87;;;;;;;;;;5066098;28;20453;-91
2021/05/09 00:19:35;;;;;;;22.37;21.07;;;;;;;;;;5059051;28;20442;-90
2021/05/09 00:22:07;;;;;;;22.00;20.57;;;;;;;;;;5061531;28;20438;-90
2021/05/09 00:24:34;;;;;;;22.40;21.10;;;;;;;;;;5058818;28;20442;-91
2021/05/09 00:27:01;;;;;;;21.57;20.23;;;;;;;;;;5058618;28;20414;-91
2021/05/09 00:29:28;;;;;;;21.03;19.93;;;;;;;;;;5059180;28;20448;-90
2021/05/09 00:31:56;;;;;;;20.50;19.40;;;;;;;;;;5058991;28;20385;-91
2021/05/09 00:34:23;;;;;;;21.30;20.10;;;;;;;;;;5041606;28;20477;-90
2021/05/09 00:36:50;;;;;;;21.70;20.50;;;;;;;;;;5059758;28;20438;-90
2021/05/09 00:39:17;;;;;;;21.90;20.60;;;;;;;;;;5058083;28;20401;-90
2021/05/09 00:41:44;;;;;;;22.20;20.90;;;;;;;;;;5057574;28;20979;-91
2021/05/09 00:44:11;;;;;;;22.10;20.90;;;;;;;;;;5061448;28;20421;-91
2021/05/09 00:46:38;;;;;;;22.10;20.90;;;;;;;;;;5058506;28;20420;-91
2021/05/09 00:49:07;;;;;;;22.90;21.50;;;;;;;;;;5062141;28;20413;-89
2021/05/09 00:51:33;;;;;;;22.30;20.80;;;;;;;;;;5062841;28;20438;-91
2021/05/09 00:54:01;;;;;;;22.00;20.63;;;;;;;;;;5058933;28;20453;-91
2021/05/09 00:56:29;;;;;;;22.00;20.80;;;;;;;;;;5060539;28;20446;-90
2021/05/09 00:58:57;;;;;;;22.10;20.90;;;;;;;;;;5060748;28;20435;-91
2021/05/09 01:01:25;;;;;;;21.60;20.30;;;;;;;;;;5067708;28;20421;-91
2021/05/09 01:03:54;;;;;;;21.80;20.40;;;;;;;;;;5062670;28;20454;-90
2021/05/09 01:06:22;;;;;;;22.07;20.87;;;;;;;;;;5046503;28;20923;-91
2021/05/09 01:08:49;;;;;;;22.87;21.47;;;;;;;;;;5045910;28;20440;-91
2021/05/09 01:11:16;;;;;;;22.27;21.00;;;;;;;;;;5064641;28;20812;-91
2021/05/09 01:13:43;;;;;;;22.10;20.80;;;;;;;;;;5063733;28;20455;-91
2021/05/09 01:16:10;;;;;;;22.70;21.40;;;;;;;;;;5046098;28;20413;-91
2021/05/09 01:18:37;;;;;;;23.77;22.40;;;;;;;;;;5064701;28;20423;-91
2021/05/09 01:21:06;;;;;;;21.73;20.43;;;;;;;;;;5064371;28;20536;-91
2021/05/09 01:23:33;;;;;;;21.87;20.57;;;;;;;;;;5065293;28;20438;-91
2021/05/09 01:26:01;;;;;;;21.70;20.43;;;;;;;;;;5069869;28;20425;-92
2021/05/09 01:28:28;;;;;;;21.70;20.30;;;;;;;;;;5067821;28;20474;-91
2021/05/09 01:30:57;;;;;;;21.20;20.10;;;;;;;;;;5069095;28;20485;-91
2021/05/09 01:33:24;;;;;;;21.43;20.23;;;;;;;;;;5066226;28;20467;-91
2021/05/09 01:35:51;;;;;;;21.90;20.50;;;;;;;;;;5068974;28;20457;-90
2021/05/09 01:38:21;;;;;;;22.60;21.30;;;;;;;;;;5057055;28;20836;-91
2021/05/09 01:40:48;;;;;;;22.40;21.20;;;;;;;;;;5059030;28;20477;-91
2021/05/09 01:43:15;;;;;;;22.90;21.60;;;;;;;;;;5058472;28;20432;-91
2021/05/09 01:45:42;;;;;;;22.17;20.90;;;;;;;;;;5056873;28;20811;-89
2021/05/09 01:48:09;;;;;;;21.63;20.43;;;;;;;;;;5042163;28;20471;-92
2021/05/09 01:50:38;;;;;;;22.07;20.77;;;;;;;;;;5070126;28;20449;-90
2021/05/09 01:53:05;;;;;;;20.77;19.63;;;;;;;;;;5055603;28;20416;-91
2021/05/09 01:55:33;;;;;;;21.60;20.33;;;;;;;;;;5066169;28;20544;-90
2021/05/09 01:58:00;;;;;;;21.50;20.20;;;;;;;;;;5044555;28;20421;-91
2021/05/09 02:00:27;;;;;;;20.60;19.50;;;;;;;;;;5056087;28;20449;-91
2021/05/09 02:02:54;;;;;;;20.73;19.63;;;;;;;;;;5055631;28;20425;-90
2021/05/09 02:05:21;;;;;;;21.80;20.33;;;;;;;;;;5055813;28;20544;-91
2021/05/09 02:07:48;;;;;;;21.33;19.50;;;;;;;;;;5056606;28;20422;-91
2021/05/09 02:10:15;;;;;;;21.17;19.87;;;;;;;;;;5057905;28;20427;-92
2021/05/09 02:12:42;;;;;;;20.70;19.50;;;;;;;;;;5058048;28;20450;-93
2021/05/09 02:15:10;;;;;;;20.57;19.37;;;;;;;;;;5058880;28;20589;-93
2021/05/09 02:17:37;;;;;;;20.67;19.47;;;;;;;;;;5061490;28;20438;-92
2021/05/09 02:20:05;;;;;;;21.37;19.87;;;;;;;;;;5044839;28;20413;-93
2021/05/09 02:22:32;;;;;;;20.67;19.47;;;;;;;;;;5061394;28;20921;-93
2021/05/09 02:24:59;;;;;;;21.00;19.90;;;;;;;;;;5059903;28;20446;-92
2021/05/09 02:27:26;;;;;;;21.70;20.27;;;;;;;;;;5059225;28;20457;-93
2021/05/09 02:29:54;;;;;;;20.93;19.77;;;;;;;;;;5059909;28;20531;-92
2021/05/09 02:32:21;;;;;;;20.20;19.17;;;;;;;;;;5060328;28;20413;-92
2021/05/09 02:34:48;;;;;;;21.27;20.17;;;;;;;;;;5059514;28;20465;-93
2021/05/09 02:37:15;;;;;;;20.40;18.97;;;;;;;;;;5058853;28;20450;-91
2021/05/09 02:39:42;;;;;;;21.33;20.13;;;;;;;;;;5060449;28;20814;-93
2021/05/09 02:42:08;;;;;;;21.03;19.90;;;;;;;;;;5059342;28;20485;-93
2021/05/09 02:44:35;;;;;;;20.37;19.27;;;;;;;;;;5059652;28;20473;-92
2021/05/09 02:47:03;;;;;;;21.63;20.52;;;;;;;;;;5058980;28;20499;-92
2021/05/09 02:49:30;;;;;;;21.03;19.93;;;;;;;;;;5058465;28;20594;-93
2021/05/09 02:51:57;;;;;;;21.10;19.90;;;;;;;;;;5058801;28;20417;-92
2021/05/09 02:54:24;;;;;;;20.03;19.03;;;;;;;;;;5057661;28;20996;-93
2021/05/09 02:56:51;;;;;;;21.17;19.70;;;;;;;;;;5040631;28;20432;-92
2021/05/09 02:59:18;;;;;;;20.07;18.77;;;;;;;;;;5058295;28;20428;-93
2021/05/09 03:01:45;;;;;;;20.30;19.05;;;;;;;;;;5058781;28;20405;-93
2021/05/09 03:04:13;;;;;;;20.53;19.13;;;;;;;;;;5058492;28;20196;-92
2021/05/09 03:06:40;;;;;;;20.23;19.23;;;;;;;;;;5057836;28;20441;-93
2021/05/09 03:09:07;;;;;;;20.23;19.13;;;;;;;;;;5057926;28;20886;-92
2021/05/09 03:11:34;;;;;;;20.00;19.00;;;;;;;;;;5058295;28;20213;-92
2021/05/09 03:14:01;;;;;;;20.10;19.10;;;;;;;;;;5058615;28;20488;-92
2021/05/09 03:16:28;;;;;;;20.50;19.40;;;;;;;;;;5059326;28;20192;-93
2021/05/09 03:18:55;;;;;;;19.83;18.83;;;;;;;;;;5058556;28;20430;-92
2021/05/09 03:21:23;;;;;;;20.90;19.80;;;;;;;;;;5058311;28;20417;-93
2021/05/09 03:23:49;;;;;;;19.63;18.63;;;;;;;;;;5059057;28;20448;-92
2021/05/09 03:26:16;;;;;;;19.63;18.63;;;;;;;;;;5040035;28;20429;-93
2021/05/09 03:28:44;;;;;;;19.70;18.70;;;;;;;;;;5058504;28;20477;-92
2021/05/09 03:31:10;;;;;;;20.90;19.70;;;;;;;;;;5042312;28;20924;-92
2021/05/09 03:33:37;;;;;;;20.55;19.45;;;;;;;;;;5058875;28;20506;-93
2021/05/09 03:36:06;;;;;;;20.40;19.30;;;;;;;;;;5059385;28;20235;-93
2021/05/09 03:38:34;;;;;;;19.70;18.70;;;;;;;;;;5058507;28;20401;-92
2021/05/09 03:41:01;;;;;;;20.63;19.42;;;;;;;;;;5038104;28;20446;-91
2021/05/09 03:43:27;;;;;;;21.10;19.90;;;;;;;;;;5037791;28;20208;-92
2021/05/09 03:45:54;;;;;;;19.43;18.43;;;;;;;;;;5038839;28;20458;-92
2021/05/09 03:48:21;;;;;;;19.70;18.70;;;;;;;;;;5039027;28;20421;-92
2021/05/09 03:50:48;;;;;;;21.27;20.08;;;;;;;;;;5038045;28;20413;-92
2021/05/09 03:53:15;;;;;;;20.70;19.60;;;;;;;;;;5039040;28;20211;-92
2021/05/09 03:55:43;;;;;;;19.93;18.93;;;;;;;;;;5038939;28;20484;-93
2021/05/09 03:58:10;;;;;;;20.70;19.40;;;;;;;;;;5039161;28;20876;-93
2021/05/09 04:00:38;;;;;;;20.53;19.43;;;;;;;;;;5038498;28;20449;-92
2021/05/09 04:03:20;;;;;;;20.00;18.83;;;;;;;;;;5038220;28;20424;-92
2021/05/09 04:05:48;;;;;;;20.10;19.00;;;;;;;;;;5038705;28;20443;-92
2021/05/09 04:08:16;;;;;;;20.27;18.97;;;;;;;;;;5038566;28;20496;-92
2021/05/09 04:10:45;;;;;;;20.07;18.97;;;;;;;;;;5039341;28;20447;-92
2021/05/09 04:13:12;;;;;;;20.63;19.43;;;;;;;;;;5039695;28;20430;-92
2021/05/09 04:15:40;;;;;;;19.17;18.07;;;;;;;;;;5038403;28;20485;-92
2021/05/09 04:18:07;;;;;;;19.93;18.83;;;;;;;;;;5038340;28;20438;-92
2021/05/09 04:20:34;;;;;;;20.50;18.60;;;;;;;;;;5039021;28;20451;-91
2021/05/09 04:23:08;;;;;;;19.37;18.27;;;;;;;;;;5039074;28;20455;-93
2021/05/09 04:25:35;;;;;;;20.33;18.90;;;;;;;;;;5038611;28;20417;-94
2021/05/09 04:28:04;;;;;;;20.17;18.67;;;;;;;;;;5038712;28;20847;-93
2021/05/09 04:30:33;;;;;;;19.10;18.10;;;;;;;;;;5038686;28;20413;-93
2021/05/09 04:33:00;;;;;;;19.60;18.60;;;;;;;;;;5038278;28;20191;-92
2021/05/09 04:35:27;;;;;;;19.77;18.77;;;;;;;;;;5038188;28;20461;-93
2021/05/09 04:37:54;;;;;;;19.43;18.20;;;;;;;;;;5038342;28;20439;-94
2021/05/09 04:40:21;;;;;;;19.80;18.80;;;;;;;;;;5040161;28;20549;-93
2021/05/09 04:42:48;;;;;;;19.63;18.63;;;;;;;;;;5057542;28;20465;-94
2021/05/09 04:45:16;;;;;;;21.42;20.23;;;;;;;;;;5058890;28;20446;-93
2021/05/09 04:47:43;;;;;;;19.63;18.73;;;;;;;;;;5057937;28;20659;-93
2021/05/09 04:50:11;;;;;;;20.90;19.80;;;;;;;;;;5057459;28;20199;-93
2021/05/09 04:52:38;;;;;;;20.53;19.10;;;;;;;;;;5056834;28;20465;-93
2021/05/09 04:55:06;;;;;;;19.67;18.77;;;;;;;;;;5057521;28;20884;-93
2021/05/09 04:57:33;;;;;;;20.20;18.97;;;;;;;;;;5059959;28;20421;-93
2021/05/09 05:00:00;;;;;;;19.43;18.23;;;;;;;;;;5057226;28;20469;-93
2021/05/09 05:02:28;;;;;;;19.00;18.07;;;;;;;;;;5057418;28;20439;-93
2021/05/09 05:04:55;;;;;;;19.97;18.97;;;;;;;;;;5057412;28;20931;-93
2021/05/09 05:07:22;;;;;;;19.23;18.30;;;;;;;;;;5056876;28;20430;-93
2021/05/09 05:09:49;;;;;;;20.23;19.03;;;;;;;;;;5040801;28;20450;-93
2021/05/09 05:12:16;;;;;;;19.37;18.37;;;;;;;;;;5056951;28;20440;-93
2021/05/09 05:14:43;;;;;;;19.87;18.87;;;;;;;;;;5057624;28;20489;-93
2021/05/09 05:17:13;;;;;;;19.80;18.70;;;;;;;;;;5039271;28;20422;-93
2021/05/09 05:19:42;;;;;;;20.77;19.37;;;;;;;;;;5056793;28;20902;-92
2021/05/09 05:22:09;;;;;;;19.00;18.10;;;;;;;;;;5058129;28;20913;-92
2021/05/09 05:24:36;;;;;;;18.83;17.93;;;;;;;;;;5056996;28;20435;-93
2021/05/09 05:27:02;;;;;;;19.70;18.50;;;;;;;;;;5057474;28;20446;-93
2021/05/09 05:29:29;;;;;;;18.90;17.90;;;;;;;;;;5056973;28;20481;-93
2021/05/09 05:31:56;;;;;;;19.60;18.50;;;;;;;;;;5056462;28;20803;-93
2021/05/09 05:34:23;;;;;;;18.70;17.70;;;;;;;;;;5057403;28;20477;-94
2021/05/09 05:36:51;;;;;;;18.60;17.60;;;;;;;;;;5057053;28;20412;-93
2021/05/09 05:39:19;;;;;;;19.93;18.83;;;;;;;;;;5056890;28;20496;-93
2021/05/09 05:41:46;;;;;;;19.60;18.40;;;;;;;;;;5056483;28;20445;-93
2021/05/09 05:44:13;;;;;;;18.50;17.60;;;;;;;;;;5056238;28;20482;-92
2021/05/09 05:46:40;;;;;;;18.60;17.70;;;;;;;;;;5056683;28;20413;-93
2021/05/09 05:49:07;;;;;;;19.43;18.43;;;;;;;;;;5056308;28;20425;-93
2021/05/09 05:51:34;;;;;;;19.23;18.23;;;;;;;;;;5060570;28;20535;-93
2021/05/09 05:54:02;;;;;;;19.60;18.50;;;;;;;;;;5061078;28;20401;-93
2021/05/09 05:56:29;;;;;;;18.33;17.43;;;;;;;;;;5043453;28;20432;-93
2021/05/09 05:58:56;;;;;;;19.83;18.70;;;;;;;;;;5060327;28;20876;-96
2021/05/09 06:01:27;;;;;;;18.30;17.40;;;;;;;;;;5059805;28;20446;-96
2021/05/09 06:03:55;;;;;;;19.70;18.70;;;;;;;;;;5060797;28;20459;-96
2021/05/09 06:06:22;;;;;;;18.53;17.60;;;;;;;;;;5061209;28;20795;-96
2021/05/09 06:08:51;;;;;;;18.97;18.07;;;;;;;;;;5060685;28;20471;-95
2021/05/09 06:11:19;;;;;;;18.43;17.43;;;;;;;;;;5061801;28;20897;-95
2021/05/09 06:13:47;;;;;;;19.10;18.00;;;;;;;;;;5062037;28;20425;-96
2021/05/09 06:16:14;;;;;;;18.80;17.90;;;;;;;;;;5061647;28;20543;-95
2021/05/09 06:18:41;;;;;;;18.57;17.67;;;;;;;;;;5061205;28;20412;-95
2021/05/09 06:21:08;;;;;;;18.30;17.40;;;;;;;;;;5043004;28;20421;-95
2021/05/09 06:23:35;;;;;;;19.37;18.30;;;;;;;;;;5060296;28;20434;-94
2021/05/09 06:26:04;;;;;;;19.03;17.93;;;;;;;;;;5065937;28;20439;-96
2021/05/09 06:28:32;;;;;;;18.93;17.93;;;;;;;;;;5059431;28;21029;-95
2021/05/09 06:30:59;;;;;;;18.30;17.40;;;;;;;;;;5061302;28;20412;-94
2021/05/09 06:33:25;;;;;;;19.13;18.03;;;;;;;;;;5060280;28;20454;-93
2021/05/09 06:35:53;;;;;;;18.80;17.80;;;;;;;;;;5059432;28;20519;-95
2021/05/09 06:38:24;;;;;;;18.90;18.00;;;;;;;;;;5060351;28;20435;-92
2021/05/09 06:40:51;;;;;;;18.90;17.80;;;;;;;;;;5059842;28;20464;-93
2021/05/09 06:43:18;;;;;;;18.57;17.67;;;;;;;;;;5060510;28;20962;-94
2021/05/09 06:45:48;;;;;;;19.20;18.20;;;;;;;;;;5060453;28;20399;-93
2021/05/09 06:48:15;;;;;;;19.30;18.20;;;;;;;;;;5061020;28;20435;-92
2021/05/09 06:50:42;;;;;;;19.50;18.10;;;;;;;;;;5061162;28;20406;-91
2021/05/09 06:53:08;;;;;;;19.30;18.20;;;;;;;;;;5061276;28;20425;-91
2021/05/09 06:55:35;;;;;;;19.73;18.50;;;;;;;;;;5062572;28;20518;-92
2021/05/09 06:58:07;;;;;;;18.50;17.60;;;;;;;;;;5060913;28;20411;-92
2021/05/09 07:00:34;;;;;;;18.90;17.97;;;;;;;;;;5061812;28;20503;-92
2021/05/09 07:03:02;;;;;;;18.90;18.00;;;;;;;;;;5060341;28;20437;-92
2021/05/09 07:05:29;;;;;;;18.13;17.23;;;;;;;;;;5060036;28;20414;-92
2021/05/09 07:07:58;;;;;;;19.10;18.10;;;;;;;;;;5060204;28;20421;-92
2021/05/09 07:10:26;;;;;;;19.93;18.80;;;;;;;;;;5061717;28;20410;-93
2021/05/09 07:13:15;;;;;;;19.20;18.20;;;;;;;;;;5049656;28;20453;-92
2021/05/09 07:15:43;;;;;;;19.80;18.80;;;;;;;;;;5061697;28;20449;-92
2021/05/09 07:18:13;;;;;;;19.20;18.20;;;;;;;;;;5061192;28;20800;-92
2021/05/09 07:20:42;;;;;;;19.57;18.57;;;;;;;;;;5062007;28;20414;-93
2021/05/09 07:23:11;;;;;;;19.50;18.20;;;;;;;;;;5062928;28;20447;-92
2021/05/09 07:25:40;;;;;;;19.80;18.80;;;;;;;;;;5060579;28;20454;-91
2021/05/09 07:28:07;;;;;;;19.30;18.40;;;;;;;;;;5062186;28;20823;-93
2021/05/09 07:30:34;;;;;;;19.20;18.10;;;;;;;;;;5060623;28;20413;-93
2021/05/09 07:33:01;;;;;;;19.00;18.00;;;;;;;;;;5061010;28;20444;-92
2021/05/09 07:35:29;;;;;;;18.60;17.70;;;;;;;;;;5060682;28;20790;-91
2021/05/09 07:37:56;;;;;;;18.97;17.97;;;;;;;;;;5062892;28;20410;-92
2021/05/09 07:40:24;;;;;;;19.33;18.33;;;;;;;;;;5062178;28;20438;-91
2021/05/09 07:42:51;;;;;;;19.03;18.03;;;;;;;;;;5064338;28;20411;-96
2021/05/09 07:45:20;;;;;;;19.23;18.23;;;;;;;;;;5065648;28;20415;-94
2021/05/09 07:47:46;;;;;;;19.50;18.50;;;;;;;;;;5064027;28;20476;-90
2021/05/09 07:50:14;;;;;;;19.27;18.27;;;;;;;;;;5063897;28;20489;-88
2021/05/09 07:52:44;;;;;;;19.80;18.70;;;;;;;;;;5068680;28;20905;-89
2021/05/09 07:55:15;;;;;;;19.07;18.07;;;;;;;;;;5062410;28;20458;-89
2021/05/09 07:57:42;;;;;;;19.87;18.67;;;;;;;;;;5062920;28;20521;-86
2021/05/09 08:00:15;;;;;;;18.97;17.87;;;;;;;;;;5044628;28;21005;-84
2021/05/09 08:02:43;;;;;;;19.60;18.60;;;;;;;;;;5061106;28;20430;-84
2021/05/09 08:05:11;;;;;;;19.13;18.13;;;;;;;;;;5059650;28;20560;-85
2021/05/09 08:07:49;;;;;;;19.63;18.63;;;;;;;;;;5060582;28;20445;-84
2021/05/09 08:10:18;;;;;;;19.77;18.70;;;;;;;;;;5059280;28;20443;-81
2021/05/09 08:12:47;;;;;;;20.07;18.97;;;;;;;;;;5059460;28;20445;-85
2021/05/09 08:15:14;;;;;;;19.80;18.70;;;;;;;;;;5059279;28;21000;-83
2021/05/09 08:17:41;;;;;;;21.07;19.50;;;;;;;;;;5059256;28;20410;-86
2021/05/09 08:20:09;;;;;;;20.83;19.63;;;;;;;;;;5059370;28;20436;-84
2021/05/09 08:22:36;;;;;;;21.33;20.07;;;;;;;;;;5059468;28;20423;-84
2021/05/09 08:25:05;;;;;;;21.00;19.80;;;;;;;;;;5058965;28;20946;-84
2021/05/09 08:27:33;;;;;;;20.00;18.90;;;;;;;;;;5059739;28;20980;-84
2021/05/09 08:30:00;;;;;;;21.07;19.87;;;;;;;;;;5058060;28;20905;-84
2021/05/09 08:32:28;;;;;;;20.07;18.97;;;;;;;;;;5057151;28;20424;-84
2021/05/09 08:34:57;;;;;;;20.60;19.40;;;;;;;;;;5057056;28;20486;-84
2021/05/09 08:37:24;;;;;;;20.37;19.23;;;;;;;;;;5057967;28;20436;-84
2021/05/09 08:39:51;;;;;;;20.43;19.33;;;;;;;;;;5062516;28;20430;-83
2021/05/09 08:42:19;;;;;;;20.73;19.63;;;;;;;;;;5062987;28;20454;-84
2021/05/09 08:44:46;;;;;;;21.30;19.80;;;;;;;;;;5061392;28;20460;-84
2021/05/09 08:47:15;;;;;;;20.47;19.17;;;;;;;;;;5061285;28;20478;-84
2021/05/09 08:49:43;;;;;;;19.93;18.83;;;;;;;;;;5062761;28;21009;-90
2021/05/09 08:52:10;;;;;;;20.80;19.60;;;;;;;;;;5064763;28;20450;-85
2021/05/09 08:54:37;;;;;;;20.93;19.73;;;;;;;;;;5064449;28;20414;-86
2021/05/09 08:57:04;;;;;;;20.23;18.90;;;;;;;;;;5065239;28;20948;-86
2021/05/09 08:59:34;;;;;;;20.40;19.20;;;;;;;;;;5062471;28;20432;-85
2021/05/09 09:02:01;;;;;;;20.57;19.37;;;;;;;;;;5063453;28;20468;-85
2021/05/09 09:04:41;;;;;;;20.93;19.73;;;;;;;;;;5062245;28;20760;-85
2021/05/09 09:07:10;;;;;;;20.80;19.50;;;;;;;;;;5066916;28;21027;-85
2021/05/09 09:09:41;;;;;;;20.70;19.60;;;;;;;;;;5069071;28;20440;-81
2021/05/09 09:12:08;;;;;;;22.20;20.80;;;;;;;;;;5069070;28;20412;-80
2021/05/09 09:14:51;;;;;;;22.27;20.90;;;;;;;;;;5048452;28;20422;-79
2021/05/09 09:17:19;;;;;;;20.70;19.50;;;;;;;;;;5066866;28;20418;-80
2021/05/09 09:20:02;;;;;;;21.37;20.17;;;;;;;;;;5067376;28;20438;-79
2021/05/09 09:22:29;;;;;;;21.57;20.27;;;;;;;;;;5069129;28;20451;-81
2021/05/09 09:25:04;;;;;;;21.70;20.40;;;;;;;;;;5067869;28;20427;-78
2021/05/09 09:27:33;;;;;;;21.10;19.80;;;;;;;;;;5043730;28;20492;-80
2021/05/09 09:30:06;;;;;;;22.17;20.87;;;;;;;;;;5067331;28;20426;-80
2021/05/09 09:32:33;;;;;;;20.83;19.70;;;;;;;;;;5065858;28;20452;-80
2021/05/09 09:35:00;;;;;;;20.83;19.63;;;;;;;;;;5063792;28;20454;-78
2021/05/09 09:37:32;;;;;;;21.23;19.90;;;;;;;;;;5070006;28;20439;-89
2021/05/09 09:40:02;;;;;;;21.87;20.37;;;;;;;;;;5068393;28;20456;-86
2021/05/09 09:42:39;;;;;;;21.30;20.10;;;;;;;;;;5066404;28;20802;-87
2021/05/09 09:45:18;;;;;;;22.30;21.00;;;;;;;;;;5068273;28;20423;-87
2021/05/09 09:48:00;;;;;;;22.03;20.73;;;;;;;;;;5058636;28;20438;-88
2021/05/09 09:50:36;;;;;;;22.00;20.50;;;;;;;;;;5056458;28;20444;-86
2021/05/09 09:53:04;;;;;;;21.70;20.50;;;;;;;;;;5056302;28;20895;-86
2021/05/09 09:55:31;;;;;;;21.93;20.47;;;;;;;;;;5055992;28;20455;-87
2021/05/09 09:58:06;;;;;;;21.93;20.53;;;;;;;;;;5038564;28;20482;-92
2021/05/09 10:00:34;;;;;;;22.63;21.23;;;;;;;;;;5057301;28;20759;-88
2021/05/09 10:03:01;;;;;;;22.50;20.87;;;;;;;;;;5055197;28;20452;-89
2021/05/09 10:05:28;;;;;;;22.40;21.10;;;;;;;;;;5058003;28;20446;-89
2021/05/09 10:07:56;;;;;;;23.23;21.83;;;;;;;;;;5054283;28;20458;-92
2021/05/09 10:10:23;;;;;;;22.70;21.40;;;;;;;;;;5036696;28;20480;-86
2021/05/09 10:12:50;;;;;;;22.20;21.00;;;;;;;;;;5054234;28;20428;-85
2021/05/09 10:15:17;;;;;;;22.27;21.00;;;;;;;;;;5037767;28;20443;-88
2021/05/09 10:17:47;;;;;;;21.33;20.03;;;;;;;;;;5054802;28;20422;-86
2021/05/09 10:20:14;;;;;;;22.50;21.20;;;;;;;;;;5054583;28;20893;-87
2021/05/09 10:22:41;;;;;;;21.27;20.07;;;;;;;;;;5054244;28;20425;-87
2021/05/09 10:25:08;;;;;;;22.37;21.13;;;;;;;;;;5053991;28;20450;-87
2021/05/09 10:27:36;;;;;;;21.80;20.60;;;;;;;;;;5053842;28;20434;-87
2021/05/09 10:30:04;;;;;;;21.67;20.43;;;;;;;;;;5054197;28;20423;-86
2021/05/09 10:32:51;;;;;;;21.20;20.00;;;;;;;;;;5055108;28;20462;-86
2021/05/09 10:35:18;;;;;;;21.50;20.40;;;;;;;;;;5056365;28;21013;-87
2021/05/09 10:38:04;;;;;;;22.73;21.33;;;;;;;;;;5059307;28;20809;-87
2021/05/09 10:40:33;;;;;;;21.97;20.60;;;;;;;;;;5060109;28;20460;-87
2021/05/09 10:43:18;;;;;;;22.47;21.17;;;;;;;;;;5058350;28;20951;-87
2021/05/09 10:45:56;;;;;;;21.57;20.37;;;;;;;;;;5060345;28;20420;-87
2021/05/09 10:48:32;;;;;;;22.40;21.20;;;;;;;;;;5060234;28;20494;-87
2021/05/09 10:51:23;;;;;;;22.37;21.07;;;;;;;;;;5058982;28;20436;-88
2021/05/09 10:53:52;;;;;;;21.47;20.20;;;;;;;;;;5057958;28;20412;-86
2021/05/09 10:56:32;;;;;;;21.93;20.73;;;;;;;;;;5056819;28;20464;-84
2021/05/09 10:58:59;;;;;;;22.57;21.37;;;;;;;;;;5057067;28;20417;-86
2021/05/09 11:01:26;;;;;;;22.13;20.67;;;;;;;;;;5057114;28;20420;-87
2021/05/09 11:03:55;;;;;;;22.50;21.17;;;;;;;;;;5057109;28;20916;-85
2021/05/09 11:06:38;;;;;;;22.93;21.70;;;;;;;;;;5057196;28;20493;-84
2021/05/09 11:09:05;;;;;;;22.87;21.57;;;;;;;;;;5039572;28;20442;-84
2021/05/09 11:11:51;;;;;;;22.93;21.63;;;;;;;;;;5056630;28;20454;-85
2021/05/09 11:14:18;;;;;;;22.30;21.03;;;;;;;;;;5039135;28;20775;-85
2021/05/09 11:16:46;;;;;;;23.03;21.73;;;;;;;;;;5056272;28;21023;-85
2021/05/09 11:19:14;;;;;;;21.50;20.20;;;;;;;;;;5056589;28;20401;-85
2021/05/09 11:21:42;;;;;;;22.97;21.67;;;;;;;;;;5056298;28;20459;-85
2021/05/09 11:24:10;;;;;;;22.40;21.10;;;;;;;;;;5057134;28;20445;-85
2021/05/09 11:26:41;;;;;;;22.97;21.63;;;;;;;;;;5059802;28;20916;-85
2021/05/09 11:29:09;;;;;;;23.00;21.80;;;;;;;;;;5061442;28;20471;-85
2021/05/09 11:31:36;;;;;;;22.80;21.50;;;;;;;;;;5057968;28;20794;-84
2021/05/09 11:34:04;;;;;;;22.30;21.07;;;;;;;;;;5058729;28;20412;-84
2021/05/09 11:36:34;;;;;;;21.00;19.90;;;;;;;;;;5059462;28;20811;-84
2021/05/09 11:39:08;;;;;;;22.13;20.93;;;;;;;;;;5061866;28;20463;-91
2021/05/09 11:41:48;;;;;;;22.80;21.30;;;;;;;;;;5062016;28;20459;-89
2021/05/09 11:44:15;;;;;;;23.10;21.20;;;;;;;;;;5057808;28;20417;-91
2021/05/09 11:46:42;;;;;;;22.23;20.97;;;;;;;;;;5056890;28;20417;-82
2021/05/09 11:49:16;;;;;;;23.20;21.80;;;;;;;;;;5056046;28;20789;-83
2021/05/09 11:51:51;;;;;;;23.60;22.00;;;;;;;;;;5056898;28;20483;-83
2021/05/09 11:54:19;;;;;;;22.23;20.93;;;;;;;;;;5057352;28;20749;-83
2021/05/09 11:56:53;;;;;;;22.60;21.30;;;;;;;;;;5056661;28;20877;-81
2021/05/09 11:59:33;;;;;;;22.83;21.53;;;;;;;;;;5055539;28;20413;-83
2021/05/09 12:02:00;;;;;;;22.70;21.30;;;;;;;;;;5055650;28;20424;-83
2021/05/09 12:04:35;;;;;;;21.80;20.50;;;;;;;;;;5058422;28;20515;-81
2021/05/09 12:07:04;;;;;;;23.03;21.60;;;;;;;;;;5060658;28;20441;-82
2021/05/09 12:09:31;;;;;;;22.33;21.03;;;;;;;;;;5061870;28;20463;-81
2021/05/09 12:12:00;;;;;;;21.87;20.67;;;;;;;;;;5061283;28;20775;-81
2021/05/09 12:14:28;;;;;;;22.43;20.90;;;;;;;;;;5061002;28;20446;-81
2021/05/09 12:16:55;;;;;;;25.83;24.20;;;;;;;;;;5057899;28;20493;-82
2021/05/09 12:19:29;;;;;;;22.43;21.20;;;;;;;;;;5055502;28;20417;-82
2021/05/09 12:21:56;;;;;;;22.17;20.77;;;;;;;;;;5055475;28;20803;-82
2021/05/09 12:24:24;;;;;;;22.43;21.23;;;;;;;;;;5056857;28;20434;-81
2021/05/09 12:26:59;;;;;;;23.13;21.83;;;;;;;;;;5057296;28;20423;-82
2021/05/09 12:29:26;;;;;;;22.97;21.67;;;;;;;;;;5054908;28;20477;-82
2021/05/09 12:31:53;;;;;;;23.93;22.40;;;;;;;;;;5054654;28;20447;-82
2021/05/09 12:34:26;;;;;;;22.70;21.40;;;;;;;;;;5055161;28;20442;-82
2021/05/09 12:37:06;;;;;;;21.97;20.77;;;;;;;;;;5055663;28;20449;-82
2021/05/09 12:39:34;;;;;;;22.30;21.10;;;;;;;;;;5055401;28;20963;-82
2021/05/09 12:42:02;;;;;;;24.30;22.70;;;;;;;;;;5054553;28;20472;-82
2021/05/09 12:44:30;;;;;;;24.63;22.93;;;;;;;;;;5054747;28;20449;-82
2021/05/09 12:46:57;;;;;;;23.10;21.80;;;;;;;;;;5054441;28;20424;-82
2021/05/09 12:49:26;;;;;;;23.60;22.20;;;;;;;;;;5054637;28;20471;-82
2021/05/09 12:51:58;;;;;;;23.77;22.30;;;;;;;;;;5037274;28;20420;-83
2021/05/09 12:54:38;;;;;;;22.93;21.63;;;;;;;;;;5054201;28;20421;-81
2021/05/09 12:57:18;;;;;;;25.90;24.23;;;;;;;;;;5054262;28;20465;-82
2021/05/09 12:59:48;;;;;;;23.27;21.77;;;;;;;;;;5055186;28;20443;-82
2021/05/09 13:02:17;;;;;;;23.50;22.20;;;;;;;;;;5038049;28;20428;-82
2021/05/09 13:04:46;;;;;;;22.37;21.10;;;;;;;;;;5055659;28;20976;-82
2021/05/09 13:07:18;;;;;;;23.43;21.90;;;;;;;;;;5059738;28;20413;-82
2021/05/09 13:09:46;;;;;;;23.60;22.30;;;;;;;;;;5056310;28;20417;-81
2021/05/09 13:12:13;;;;;;;22.40;21.00;;;;;;;;;;5055582;28;20429;-81
2021/05/09 13:14:41;;;;;;;24.60;23.00;;;;;;;;;;5056480;28;20425;-81
2021/05/09 13:17:08;;;;;;;24.43;23.03;;;;;;;;;;5055580;28;20518;-82
2021/05/09 13:19:35;;;;;;;22.83;21.43;;;;;;;;;;5055203;28;20417;-81
2021/05/09 13:22:02;;;;;;;23.37;21.97;;;;;;;;;;5056751;28;20416;-82
2021/05/09 13:24:29;;;;;;;23.20;21.90;;;;;;;;;;5055584;28;20435;-84
2021/05/09 13:26:57;;;;;;;22.90;21.50;;;;;;;;;;5060108;28;20430;-89
2021/05/09 13:29:24;;;;;;;22.77;21.47;;;;;;;;;;5054256;28;20457;-80
2021/05/09 13:31:51;;;;;;;23.57;22.17;;;;;;;;;;5054320;28;20419;-84
2021/05/09 13:34:18;;;;;;;23.20;21.90;;;;;;;;;;5053918;28;20467;-79
2021/05/09 13:36:45;;;;;;;24.10;22.40;;;;;;;;;;5054092;28;20460;-80
2021/05/09 13:39:12;;;;;;;24.10;22.80;;;;;;;;;;5053782;28;20439;-80
2021/05/09 13:41:39;;;;;;;23.03;21.63;;;;;;;;;;5053537;28;21141;-79
2021/05/09 13:44:08;;;;;;;24.20;22.77;;;;;;;;;;5054051;28;20437;-80
2021/05/09 13:46:35;;;;;;;24.30;22.80;;;;;;;;;;5055432;28;20443;-80
2021/05/09 13:49:02;;;;;;;23.50;22.10;;;;;;;;;;5058747;28;20439;-80
2021/05/09 13:51:29;;;;;;;22.20;20.80;;;;;;;;;;5056309;28;20437;-80
2021/05/09 13:53:56;;;;;;;22.17;20.77;;;;;;;;;;5055315;28;20426;-79
2021/05/09 13:56:23;;;;;;;23.50;22.10;;;;;;;;;;5056474;28;20484;-80
2021/05/09 13:58:51;;;;;;;23.30;22.00;;;;;;;;;;5056493;28;20464;-79
2021/05/09 14:01:19;;;;;;;32.50;29.90;;;;;;;;;;5057088;28;20425;-78
2021/05/09 14:03:46;;;;;;;22.70;21.40;;;;;;;;;;5058549;28;20464;-81
2021/05/09 14:06:12;;;;;;;24.30;22.73;;;;;;;;;;5058072;28;20410;-80
2021/05/09 14:08:40;;;;;;;30.20;28.10;;;;;;;;;;5058723;28;20438;-80
2021/05/09 14:11:09;;;;;;;23.80;22.40;;;;;;;;;;5047613;28;20435;-82
2021/05/09 14:13:38;;;;;;;23.80;22.50;;;;;;;;;;5069594;28;20453;-80
2021/05/09 14:16:05;;;;;;;24.20;22.40;;;;;;;;;;5072929;28;20467;-80
2021/05/09 14:18:33;;;;;;;23.87;22.47;;;;;;;;;;5068672;28;20414;-80
2021/05/09 14:21:00;;;;;;;22.87;21.67;;;;;;;;;;5063128;28;20446;-80
2021/05/09 14:23:26;;;;;;;23.30;21.83;;;;;;;;;;5059670;28;20413;-80
2021/05/09 14:25:53;;;;;;;23.07;21.73;;;;;;;;;;5061072;28;20435;-80